sensor_id;sensor_type;location;lat;lon;timestamp;P1;durP1;ratioP1;P2;durP2;ratioP2
10150;SDS011;5116;52.318;4.644;2023-03-11T00:00:36;1.37;;;1.30;;
10150;SDS011;5116;52.318;4.644;2023-03-11T00:03:05;1.10;;;1.10;;
10150;SDS011;5116;52.318;4.644;2023-03-11T00:05:35;1.20;;;1.20;;
10150;SDS011;5116;52.318;4.644;2023-03-11T00:08:03;1.40;;;1.30;;
10150;SDS011;5116;52.318;4.644;2023-03-11T00:10:33;1.30;;;1.20;;
10150;SDS011;5116;52.318;4.644;2023-03-11T00:13:05;1.07;;;1.07;;
10150;SDS011;5116;52.318;4.644;2023-03-11T00:15:33;1.30;;;1.20;;
10150;SDS011;5116;52.318;4.644;2023-03-11T00:18:01;1.10;;;1.10;;
10150;SDS011;5116;52.318;4.644;2023-03-11T00:20:30;1.27;;;1.20;;
10150;SDS011;5116;52.318;4.644;2023-03-11T00:22:58;1.10;;;1.10;;
10150;SDS011;5116;52.318;4.644;2023-03-11T00:25:26;1.00;;;1.00;;
10150;SDS011;5116;52.318;4.644;2023-03-11T00:27:54;1.27;;;1.17;;
10150;SDS011;5116;52.318;4.644;2023-03-11T00:30:22;1.10;;;1.00;;
10150;SDS011;5116;52.318;4.644;2023-03-11T00:32:51;1.00;;;1.00;;
10150;SDS011;5116;52.318;4.644;2023-03-11T00:35:20;1.00;;;1.00;;
10150;SDS011;5116;52.318;4.644;2023-03-11T00:37:51;1.10;;;1.10;;
10150;SDS011;5116;52.318;4.644;2023-03-11T00:40:19;1.10;;;1.10;;
10150;SDS011;5116;52.318;4.644;2023-03-11T00:42:47;1.00;;;1.00;;
10150;SDS011;5116;52.318;4.644;2023-03-11T00:45:14;1.10;;;1.10;;
10150;SDS011;5116;52.318;4.644;2023-03-11T00:47:42;2.20;;;1.37;;
10150;SDS011;5116;52.318;4.644;2023-03-11T00:50:13;1.20;;;1.10;;
10150;SDS011;5116;52.318;4.644;2023-03-11T00:52:44;1.00;;;1.00;;
10150;SDS011;5116;52.318;4.644;2023-03-11T00:55:12;1.10;;;1.10;;
10150;SDS011;5116;52.318;4.644;2023-03-11T00:57:41;1.13;;;1.13;;
10150;SDS011;5116;52.318;4.644;2023-03-11T01:00:12;5.50;;;1.10;;
10150;SDS011;5116;52.318;4.644;2023-03-11T01:02:42;0.90;;;0.90;;
10150;SDS011;5116;52.318;4.644;2023-03-11T01:05:10;1.30;;;1.20;;
10150;SDS011;5116;52.318;4.644;2023-03-11T01:07:38;1.10;;;1.10;;
10150;SDS011;5116;52.318;4.644;2023-03-11T01:10:06;0.90;;;0.90;;
10150;SDS011;5116;52.318;4.644;2023-03-11T01:12:34;0.97;;;0.97;;
10150;SDS011;5116;52.318;4.644;2023-03-11T01:15:01;1.10;;;1.10;;
10150;SDS011;5116;52.318;4.644;2023-03-11T01:17:29;0.97;;;0.97;;
10150;SDS011;5116;52.318;4.644;2023-03-11T01:19:56;1.47;;;1.10;;
10150;SDS011;5116;52.318;4.644;2023-03-11T01:22:24;1.10;;;1.10;;
10150;SDS011;5116;52.318;4.644;2023-03-11T01:24:51;1.00;;;1.00;;
10150;SDS011;5116;52.318;4.644;2023-03-11T01:27:19;1.10;;;1.10;;
10150;SDS011;5116;52.318;4.644;2023-03-11T01:29:46;1.00;;;1.00;;
10150;SDS011;5116;52.318;4.644;2023-03-11T01:32:16;1.00;;;1.00;;
10150;SDS011;5116;52.318;4.644;2023-03-11T01:34:44;0.90;;;0.90;;
10150;SDS011;5116;52.318;4.644;2023-03-11T01:37:11;1.00;;;1.00;;
10150;SDS011;5116;52.318;4.644;2023-03-11T01:39:39;1.07;;;1.07;;
10150;SDS011;5116;52.318;4.644;2023-03-11T01:42:06;1.10;;;1.10;;
10150;SDS011;5116;52.318;4.644;2023-03-11T01:44:34;4.77;;;1.37;;
10150;SDS011;5116;52.318;4.644;2023-03-11T01:49:33;0.97;;;0.97;;
10150;SDS011;5116;52.318;4.644;2023-03-11T01:52:02;1.10;;;1.10;;
10150;SDS011;5116;52.318;4.644;2023-03-11T01:54:39;0.90;;;0.90;;
10150;SDS011;5116;52.318;4.644;2023-03-11T01:57:09;1.90;;;1.80;;
10150;SDS011;5116;52.318;4.644;2023-03-11T01:59:39;1.20;;;1.20;;
10150;SDS011;5116;52.318;4.644;2023-03-11T02:02:14;1.00;;;1.00;;
10150;SDS011;5116;52.318;4.644;2023-03-11T02:04:44;0.97;;;0.97;;
10150;SDS011;5116;52.318;4.644;2023-03-11T02:07:13;1.00;;;1.00;;
10150;SDS011;5116;52.318;4.644;2023-03-11T02:09:41;3.03;;;1.07;;
10150;SDS011;5116;52.318;4.644;2023-03-11T02:12:09;2.40;;;1.03;;
10150;SDS011;5116;52.318;4.644;2023-03-11T02:14:38;1.10;;;1.10;;
10150;SDS011;5116;52.318;4.644;2023-03-11T02:17:08;0.90;;;0.90;;
10150;SDS011;5116;52.318;4.644;2023-03-11T02:22:09;0.90;;;0.90;;
10150;SDS011;5116;52.318;4.644;2023-03-11T02:27:13;1.00;;;1.00;;
10150;SDS011;5116;52.318;4.644;2023-03-11T02:29:43;1.00;;;1.00;;
10150;SDS011;5116;52.318;4.644;2023-03-11T02:32:15;1.33;;;1.10;;
10150;SDS011;5116;52.318;4.644;2023-03-11T02:34:45;1.30;;;1.10;;
10150;SDS011;5116;52.318;4.644;2023-03-11T02:37:14;0.97;;;0.97;;
10150;SDS011;5116;52.318;4.644;2023-03-11T02:39:50;1.03;;;1.03;;
10150;SDS011;5116;52.318;4.644;2023-03-11T02:42:22;0.90;;;0.90;;
10150;SDS011;5116;52.318;4.644;2023-03-11T02:45:09;1.00;;;1.00;;
10150;SDS011;5116;52.318;4.644;2023-03-11T02:47:38;1.00;;;1.00;;
10150;SDS011;5116;52.318;4.644;2023-03-11T02:50:09;1.00;;;1.00;;
10150;SDS011;5116;52.318;4.644;2023-03-11T02:52:39;1.37;;;1.07;;
10150;SDS011;5116;52.318;4.644;2023-03-11T02:55:07;1.20;;;1.10;;
10150;SDS011;5116;52.318;4.644;2023-03-11T02:57:39;1.03;;;1.03;;
10150;SDS011;5116;52.318;4.644;2023-03-11T03:00:07;0.90;;;0.90;;
10150;SDS011;5116;52.318;4.644;2023-03-11T03:02:43;1.20;;;1.20;;
10150;SDS011;5116;52.318;4.644;2023-03-11T03:05:11;1.10;;;1.10;;
10150;SDS011;5116;52.318;4.644;2023-03-11T03:07:40;2.40;;;1.20;;
10150;SDS011;5116;52.318;4.644;2023-03-11T03:10:07;0.90;;;0.90;;
10150;SDS011;5116;52.318;4.644;2023-03-11T03:12:35;1.00;;;1.00;;
10150;SDS011;5116;52.318;4.644;2023-03-11T03:15:03;0.90;;;0.90;;
10150;SDS011;5116;52.318;4.644;2023-03-11T03:17:30;3.77;;;1.00;;
10150;SDS011;5116;52.318;4.644;2023-03-11T03:19:58;1.00;;;1.00;;
10150;SDS011;5116;52.318;4.644;2023-03-11T03:22:25;1.27;;;1.27;;
10150;SDS011;5116;52.318;4.644;2023-03-11T03:24:54;1.00;;;1.00;;
10150;SDS011;5116;52.318;4.644;2023-03-11T03:27:22;1.00;;;1.00;;
10150;SDS011;5116;52.318;4.644;2023-03-11T03:29:50;1.03;;;1.03;;
10150;SDS011;5116;52.318;4.644;2023-03-11T03:32:18;1.00;;;0.97;;
10150;SDS011;5116;52.318;4.644;2023-03-11T03:34:46;1.27;;;1.17;;
10150;SDS011;5116;52.318;4.644;2023-03-11T03:37:14;0.90;;;0.90;;
10150;SDS011;5116;52.318;4.644;2023-03-11T03:39:42;0.90;;;0.90;;
10150;SDS011;5116;52.318;4.644;2023-03-11T03:42:10;0.90;;;0.90;;
10150;SDS011;5116;52.318;4.644;2023-03-11T03:44:39;1.33;;;1.33;;
10150;SDS011;5116;52.318;4.644;2023-03-11T03:47:07;1.00;;;1.00;;
10150;SDS011;5116;52.318;4.644;2023-03-11T03:49:35;1.47;;;0.97;;
10150;SDS011;5116;52.318;4.644;2023-03-11T03:52:06;0.93;;;0.93;;
10150;SDS011;5116;52.318;4.644;2023-03-11T03:54:35;0.93;;;0.93;;
10150;SDS011;5116;52.318;4.644;2023-03-11T03:57:02;1.07;;;1.07;;
10150;SDS011;5116;52.318;4.644;2023-03-11T03:59:33;0.90;;;0.90;;
10150;SDS011;5116;52.318;4.644;2023-03-11T04:02:00;1.20;;;1.20;;
10150;SDS011;5116;52.318;4.644;2023-03-11T04:04:29;1.00;;;1.00;;
10150;SDS011;5116;52.318;4.644;2023-03-11T04:06:57;1.20;;;1.10;;
10150;SDS011;5116;52.318;4.644;2023-03-11T04:09:24;3.67;;;1.30;;
10150;SDS011;5116;52.318;4.644;2023-03-11T04:11:52;1.00;;;1.00;;
10150;SDS011;5116;52.318;4.644;2023-03-11T04:14:20;1.00;;;1.00;;
10150;SDS011;5116;52.318;4.644;2023-03-11T04:16:53;0.90;;;0.90;;
10150;SDS011;5116;52.318;4.644;2023-03-11T04:19:20;1.00;;;1.00;;
10150;SDS011;5116;52.318;4.644;2023-03-11T04:21:48;0.93;;;0.93;;
10150;SDS011;5116;52.318;4.644;2023-03-11T04:24:18;1.00;;;1.00;;
10150;SDS011;5116;52.318;4.644;2023-03-11T04:26:47;0.93;;;0.93;;
10150;SDS011;5116;52.318;4.644;2023-03-11T04:29:16;1.00;;;1.00;;
10150;SDS011;5116;52.318;4.644;2023-03-11T04:31:47;1.17;;;1.17;;
10150;SDS011;5116;52.318;4.644;2023-03-11T04:34:15;0.93;;;0.93;;
10150;SDS011;5116;52.318;4.644;2023-03-11T04:36:42;0.90;;;0.90;;
10150;SDS011;5116;52.318;4.644;2023-03-11T04:39:13;5.60;;;1.20;;
10150;SDS011;5116;52.318;4.644;2023-03-11T04:41:42;1.57;;;1.47;;
10150;SDS011;5116;52.318;4.644;2023-03-11T04:44:14;0.90;;;0.90;;
10150;SDS011;5116;52.318;4.644;2023-03-11T04:46:42;1.47;;;0.90;;
10150;SDS011;5116;52.318;4.644;2023-03-11T04:49:10;0.80;;;0.80;;
10150;SDS011;5116;52.318;4.644;2023-03-11T04:51:37;1.10;;;1.10;;
10150;SDS011;5116;52.318;4.644;2023-03-11T04:54:06;1.00;;;1.00;;
10150;SDS011;5116;52.318;4.644;2023-03-11T04:56:33;1.00;;;1.00;;
10150;SDS011;5116;52.318;4.644;2023-03-11T04:59:02;1.10;;;1.10;;
10150;SDS011;5116;52.318;4.644;2023-03-11T05:01:31;1.33;;;1.20;;
10150;SDS011;5116;52.318;4.644;2023-03-11T05:04:02;1.00;;;1.00;;
10150;SDS011;5116;52.318;4.644;2023-03-11T05:06:29;1.00;;;1.00;;
10150;SDS011;5116;52.318;4.644;2023-03-11T05:09:02;1.10;;;1.10;;
10150;SDS011;5116;52.318;4.644;2023-03-11T05:11:33;1.00;;;1.00;;
10150;SDS011;5116;52.318;4.644;2023-03-11T05:14:00;1.00;;;1.00;;
10150;SDS011;5116;52.318;4.644;2023-03-11T05:16:28;1.27;;;1.17;;
10150;SDS011;5116;52.318;4.644;2023-03-11T05:18:55;0.90;;;0.90;;
10150;SDS011;5116;52.318;4.644;2023-03-11T05:21:22;0.90;;;0.90;;
10150;SDS011;5116;52.318;4.644;2023-03-11T05:23:51;0.90;;;0.90;;
10150;SDS011;5116;52.318;4.644;2023-03-11T05:26:19;2.97;;;1.23;;
10150;SDS011;5116;52.318;4.644;2023-03-11T05:28:46;0.90;;;0.90;;
10150;SDS011;5116;52.318;4.644;2023-03-11T05:31:14;1.40;;;1.30;;
10150;SDS011;5116;52.318;4.644;2023-03-11T05:33:41;1.00;;;1.00;;
10150;SDS011;5116;52.318;4.644;2023-03-11T05:36:11;0.90;;;0.90;;
10150;SDS011;5116;52.318;4.644;2023-03-11T05:38:41;0.90;;;0.90;;
10150;SDS011;5116;52.318;4.644;2023-03-11T05:41:09;1.10;;;1.10;;
10150;SDS011;5116;52.318;4.644;2023-03-11T05:43:37;1.07;;;1.07;;
10150;SDS011;5116;52.318;4.644;2023-03-11T05:46:05;1.00;;;1.00;;
10150;SDS011;5116;52.318;4.644;2023-03-11T05:48:33;1.10;;;1.10;;
10150;SDS011;5116;52.318;4.644;2023-03-11T05:51:05;0.90;;;0.90;;
10150;SDS011;5116;52.318;4.644;2023-03-11T05:53:33;0.90;;;0.90;;
10150;SDS011;5116;52.318;4.644;2023-03-11T05:56:00;1.00;;;1.00;;
10150;SDS011;5116;52.318;4.644;2023-03-11T05:58:28;1.00;;;1.00;;
10150;SDS011;5116;52.318;4.644;2023-03-11T06:00:56;0.90;;;0.90;;
10150;SDS011;5116;52.318;4.644;2023-03-11T06:03:24;0.93;;;0.93;;
10150;SDS011;5116;52.318;4.644;2023-03-11T06:05:55;2.47;;;0.90;;
10150;SDS011;5116;52.318;4.644;2023-03-11T06:08:22;1.20;;;1.20;;
10150;SDS011;5116;52.318;4.644;2023-03-11T06:10:50;0.90;;;0.90;;
10150;SDS011;5116;52.318;4.644;2023-03-11T06:13:19;1.47;;;1.30;;
10150;SDS011;5116;52.318;4.644;2023-03-11T06:15:51;1.17;;;1.17;;
10150;SDS011;5116;52.318;4.644;2023-03-11T06:18:20;1.20;;;1.10;;
10150;SDS011;5116;52.318;4.644;2023-03-11T06:20:49;1.10;;;1.10;;
10150;SDS011;5116;52.318;4.644;2023-03-11T06:23:17;1.00;;;1.00;;
10150;SDS011;5116;52.318;4.644;2023-03-11T06:25:53;1.00;;;1.00;;
10150;SDS011;5116;52.318;4.644;2023-03-11T06:28:21;1.13;;;1.07;;
10150;SDS011;5116;52.318;4.644;2023-03-11T06:30:49;3.43;;;1.10;;
10150;SDS011;5116;52.318;4.644;2023-03-11T06:33:16;1.33;;;1.00;;
10150;SDS011;5116;52.318;4.644;2023-03-11T06:35:44;1.10;;;1.10;;
10150;SDS011;5116;52.318;4.644;2023-03-11T06:38:22;0.93;;;0.93;;
10150;SDS011;5116;52.318;4.644;2023-03-11T06:40:49;1.00;;;1.00;;
10150;SDS011;5116;52.318;4.644;2023-03-11T06:43:20;1.67;;;1.57;;
10150;SDS011;5116;52.318;4.644;2023-03-11T06:45:48;1.00;;;1.00;;
10150;SDS011;5116;52.318;4.644;2023-03-11T06:48:16;1.57;;;1.30;;
10150;SDS011;5116;52.318;4.644;2023-03-11T06:50:44;1.00;;;1.00;;
10150;SDS011;5116;52.318;4.644;2023-03-11T06:53:13;1.10;;;1.10;;
10150;SDS011;5116;52.318;4.644;2023-03-11T06:55:41;3.60;;;1.23;;
10150;SDS011;5116;52.318;4.644;2023-03-11T06:58:08;1.00;;;1.00;;
10150;SDS011;5116;52.318;4.644;2023-03-11T07:00:37;1.30;;;1.30;;
10150;SDS011;5116;52.318;4.644;2023-03-11T07:03:08;1.20;;;1.10;;
10150;SDS011;5116;52.318;4.644;2023-03-11T07:05:35;0.90;;;0.90;;
10150;SDS011;5116;52.318;4.644;2023-03-11T07:08:06;1.10;;;1.10;;
10150;SDS011;5116;52.318;4.644;2023-03-11T07:10:33;2.57;;;1.20;;
10150;SDS011;5116;52.318;4.644;2023-03-11T07:13:01;1.30;;;1.20;;
10150;SDS011;5116;52.318;4.644;2023-03-11T07:15:29;0.93;;;0.93;;
10150;SDS011;5116;52.318;4.644;2023-03-11T07:17:57;1.20;;;1.20;;
10150;SDS011;5116;52.318;4.644;2023-03-11T07:20:24;1.10;;;1.00;;
10150;SDS011;5116;52.318;4.644;2023-03-11T07:22:51;0.93;;;0.93;;
10150;SDS011;5116;52.318;4.644;2023-03-11T07:25:19;1.00;;;1.00;;
10150;SDS011;5116;52.318;4.644;2023-03-11T07:27:47;1.10;;;1.10;;
10150;SDS011;5116;52.318;4.644;2023-03-11T07:30:16;1.50;;;1.40;;
10150;SDS011;5116;52.318;4.644;2023-03-11T07:35:53;1.00;;;1.00;;
10150;SDS011;5116;52.318;4.644;2023-03-11T07:38:29;0.97;;;0.97;;
10150;SDS011;5116;52.318;4.644;2023-03-11T07:40:57;0.97;;;0.97;;
10150;SDS011;5116;52.318;4.644;2023-03-11T07:43:25;1.57;;;1.47;;
10150;SDS011;5116;52.318;4.644;2023-03-11T07:46:02;1.53;;;1.43;;
10150;SDS011;5116;52.318;4.644;2023-03-11T07:48:29;1.03;;;1.03;;
10150;SDS011;5116;52.318;4.644;2023-03-11T07:51:04;1.47;;;1.37;;
10150;SDS011;5116;52.318;4.644;2023-03-11T07:53:32;1.10;;;1.10;;
10150;SDS011;5116;52.318;4.644;2023-03-11T07:56:01;1.20;;;1.10;;
10150;SDS011;5116;52.318;4.644;2023-03-11T07:58:29;1.77;;;1.40;;
10150;SDS011;5116;52.318;4.644;2023-03-11T08:01:03;1.00;;;1.00;;
10150;SDS011;5116;52.318;4.644;2023-03-11T08:03:36;1.43;;;1.33;;
10150;SDS011;5116;52.318;4.644;2023-03-11T08:06:13;0.90;;;0.90;;
10150;SDS011;5116;52.318;4.644;2023-03-11T08:08:43;1.30;;;1.20;;
10150;SDS011;5116;52.318;4.644;2023-03-11T08:11:17;1.37;;;1.17;;
10150;SDS011;5116;52.318;4.644;2023-03-11T08:13:49;1.00;;;1.00;;
10150;SDS011;5116;52.318;4.644;2023-03-11T08:16:17;1.20;;;1.10;;
10150;SDS011;5116;52.318;4.644;2023-03-11T08:18:45;4.63;;;1.30;;
10150;SDS011;5116;52.318;4.644;2023-03-11T08:21:14;1.20;;;1.20;;
10150;SDS011;5116;52.318;4.644;2023-03-11T08:23:42;1.13;;;1.13;;
10150;SDS011;5116;52.318;4.644;2023-03-11T08:26:12;1.23;;;1.23;;
10150;SDS011;5116;52.318;4.644;2023-03-11T08:28:40;1.30;;;1.30;;
10150;SDS011;5116;52.318;4.644;2023-03-11T08:31:13;1.30;;;1.20;;
10150;SDS011;5116;52.318;4.644;2023-03-11T08:33:41;1.67;;;1.57;;
10150;SDS011;5116;52.318;4.644;2023-03-11T08:36:09;1.53;;;1.33;;
10150;SDS011;5116;52.318;4.644;2023-03-11T08:38:37;1.47;;;1.37;;
10150;SDS011;5116;52.318;4.644;2023-03-11T08:41:04;2.80;;;1.73;;
10150;SDS011;5116;52.318;4.644;2023-03-11T08:43:36;2.03;;;1.50;;
10150;SDS011;5116;52.318;4.644;2023-03-11T08:46:05;1.80;;;1.30;;
10150;SDS011;5116;52.318;4.644;2023-03-11T08:48:33;1.10;;;1.10;;
10150;SDS011;5116;52.318;4.644;2023-03-11T08:51:02;1.30;;;1.20;;
10150;SDS011;5116;52.318;4.644;2023-03-11T08:53:34;1.10;;;1.10;;
10150;SDS011;5116;52.318;4.644;2023-03-11T08:56:03;2.47;;;1.17;;
10150;SDS011;5116;52.318;4.644;2023-03-11T08:58:30;1.40;;;1.30;;
10150;SDS011;5116;52.318;4.644;2023-03-11T09:00:58;1.13;;;1.13;;
10150;SDS011;5116;52.318;4.644;2023-03-11T09:03:32;1.37;;;1.27;;
10150;SDS011;5116;52.318;4.644;2023-03-11T09:06:02;3.83;;;1.50;;
10150;SDS011;5116;52.318;4.644;2023-03-11T09:08:30;1.03;;;1.03;;
10150;SDS011;5116;52.318;4.644;2023-03-11T09:10:58;1.20;;;1.20;;
10150;SDS011;5116;52.318;4.644;2023-03-11T09:13:25;1.30;;;1.20;;
10150;SDS011;5116;52.318;4.644;2023-03-11T09:16:02;1.37;;;1.33;;
10150;SDS011;5116;52.318;4.644;2023-03-11T09:18:36;1.50;;;1.40;;
10150;SDS011;5116;52.318;4.644;2023-03-11T09:21:07;1.00;;;1.00;;
10150;SDS011;5116;52.318;4.644;2023-03-11T09:23:37;1.43;;;1.33;;
10150;SDS011;5116;52.318;4.644;2023-03-11T09:26:09;1.10;;;1.10;;
10150;SDS011;5116;52.318;4.644;2023-03-11T09:28:40;1.10;;;1.10;;
10150;SDS011;5116;52.318;4.644;2023-03-11T09:31:08;1.00;;;1.00;;
10150;SDS011;5116;52.318;4.644;2023-03-11T09:33:39;0.90;;;0.90;;
10150;SDS011;5116;52.318;4.644;2023-03-11T09:36:08;1.20;;;1.10;;
10150;SDS011;5116;52.318;4.644;2023-03-11T09:38:43;1.43;;;1.20;;
10150;SDS011;5116;52.318;4.644;2023-03-11T09:52:02;1.17;;;1.17;;
10150;SDS011;5116;52.318;4.644;2023-03-11T09:54:36;1.03;;;1.03;;
10150;SDS011;5116;52.318;4.644;2023-03-11T09:57:05;1.00;;;1.00;;
10150;SDS011;5116;52.318;4.644;2023-03-11T09:59:38;1.27;;;1.17;;
10150;SDS011;5116;52.318;4.644;2023-03-11T10:02:14;1.00;;;1.00;;
10150;SDS011;5116;52.318;4.644;2023-03-11T10:04:48;1.07;;;1.07;;
10150;SDS011;5116;52.318;4.644;2023-03-11T10:07:17;1.10;;;1.07;;
10150;SDS011;5116;52.318;4.644;2023-03-11T10:09:52;1.00;;;1.00;;
10150;SDS011;5116;52.318;4.644;2023-03-11T10:14:51;1.00;;;1.00;;
10150;SDS011;5116;52.318;4.644;2023-03-11T10:17:25;0.90;;;0.90;;
10150;SDS011;5116;52.318;4.644;2023-03-11T10:25:14;1.23;;;1.20;;
10150;SDS011;5116;52.318;4.644;2023-03-11T10:32:48;1.07;;;1.07;;
10150;SDS011;5116;52.318;4.644;2023-03-11T10:40:56;1.20;;;1.10;;
10150;SDS011;5116;52.318;4.644;2023-03-11T10:43:27;1.07;;;1.00;;
10150;SDS011;5116;52.318;4.644;2023-03-11T10:45:55;1.10;;;1.10;;
10150;SDS011;5116;52.318;4.644;2023-03-11T10:48:23;1.83;;;1.30;;
10150;SDS011;5116;52.318;4.644;2023-03-11T10:50:54;2.30;;;1.30;;
10150;SDS011;5116;52.318;4.644;2023-03-11T10:53:24;1.30;;;1.20;;
10150;SDS011;5116;52.318;4.644;2023-03-11T10:55:54;1.20;;;1.10;;
10150;SDS011;5116;52.318;4.644;2023-03-11T10:58:23;1.20;;;1.17;;
10150;SDS011;5116;52.318;4.644;2023-03-11T11:01:01;1.30;;;1.20;;
10150;SDS011;5116;52.318;4.644;2023-03-11T11:03:29;1.60;;;1.50;;
10150;SDS011;5116;52.318;4.644;2023-03-11T11:06:03;1.70;;;1.60;;
10150;SDS011;5116;52.318;4.644;2023-03-11T11:08:32;1.10;;;1.10;;
10150;SDS011;5116;52.318;4.644;2023-03-11T11:11:02;1.70;;;1.07;;
10150;SDS011;5116;52.318;4.644;2023-03-11T11:13:31;1.17;;;1.17;;
10150;SDS011;5116;52.318;4.644;2023-03-11T11:16:05;1.10;;;1.10;;
10150;SDS011;5116;52.318;4.644;2023-03-11T11:18:44;1.27;;;1.20;;
10150;SDS011;5116;52.318;4.644;2023-03-11T11:21:16;1.30;;;1.30;;
10150;SDS011;5116;52.318;4.644;2023-03-11T11:24:28;1.27;;;1.27;;
10150;SDS011;5116;52.318;4.644;2023-03-11T11:27:04;1.40;;;1.30;;
10150;SDS011;5116;52.318;4.644;2023-03-11T11:29:32;1.40;;;1.40;;
10150;SDS011;5116;52.318;4.644;2023-03-11T11:32:14;1.30;;;1.30;;
10150;SDS011;5116;52.318;4.644;2023-03-11T11:34:55;1.70;;;1.60;;
10150;SDS011;5116;52.318;4.644;2023-03-11T11:37:27;2.10;;;1.80;;
10150;SDS011;5116;52.318;4.644;2023-03-11T11:40:00;5.23;;;1.63;;
10150;SDS011;5116;52.318;4.644;2023-03-11T11:42:38;1.50;;;1.40;;
10150;SDS011;5116;52.318;4.644;2023-03-11T11:48:04;1.30;;;1.30;;
10150;SDS011;5116;52.318;4.644;2023-03-11T11:50:34;5.37;;;1.20;;
10150;SDS011;5116;52.318;4.644;2023-03-11T11:53:27;1.70;;;1.60;;
10150;SDS011;5116;52.318;4.644;2023-03-11T11:55:51;1.90;;;1.80;;
10150;SDS011;5116;52.318;4.644;2023-03-11T11:58:20;1.80;;;1.70;;
10150;SDS011;5116;52.318;4.644;2023-03-11T12:01:02;2.10;;;2.00;;
10150;SDS011;5116;52.318;4.644;2023-03-11T12:03:37;2.40;;;2.20;;
10150;SDS011;5116;52.318;4.644;2023-03-11T12:06:28;2.10;;;2.00;;
10150;SDS011;5116;52.318;4.644;2023-03-11T12:11:55;2.20;;;2.10;;
10150;SDS011;5116;52.318;4.644;2023-03-11T12:17:09;2.10;;;2.00;;
10150;SDS011;5116;52.318;4.644;2023-03-11T12:19:41;1.20;;;1.20;;
10150;SDS011;5116;52.318;4.644;2023-03-11T12:24:50;2.33;;;2.23;;
10150;SDS011;5116;52.318;4.644;2023-03-11T12:27:24;1.30;;;1.30;;
10150;SDS011;5116;52.318;4.644;2023-03-11T12:30:03;1.63;;;1.53;;
10150;SDS011;5116;52.318;4.644;2023-03-11T12:32:38;1.80;;;1.70;;
10150;SDS011;5116;52.318;4.644;2023-03-11T12:35:09;2.00;;;1.90;;
10150;SDS011;5116;52.318;4.644;2023-03-11T12:37:43;1.90;;;1.80;;
10150;SDS011;5116;52.318;4.644;2023-03-11T12:42:58;1.90;;;1.80;;
10150;SDS011;5116;52.318;4.644;2023-03-11T12:45:59;1.50;;;1.50;;
10150;SDS011;5116;52.318;4.644;2023-03-11T12:50:51;2.30;;;2.20;;
10150;SDS011;5116;52.318;4.644;2023-03-11T12:53:42;2.00;;;1.90;;
10150;SDS011;5116;52.318;4.644;2023-03-11T13:01:29;1.80;;;1.70;;
10150;SDS011;5116;52.318;4.644;2023-03-11T13:04:13;1.90;;;1.80;;
10150;SDS011;5116;52.318;4.644;2023-03-11T13:09:17;1.53;;;1.50;;
10150;SDS011;5116;52.318;4.644;2023-03-11T13:11:44;1.10;;;1.10;;
10150;SDS011;5116;52.318;4.644;2023-03-11T13:14:18;2.00;;;1.90;;
10150;SDS011;5116;52.318;4.644;2023-03-11T13:16:56;2.17;;;1.90;;
10150;SDS011;5116;52.318;4.644;2023-03-11T13:21:58;2.00;;;1.90;;
10150;SDS011;5116;52.318;4.644;2023-03-11T13:32:24;1.40;;;1.40;;
10150;SDS011;5116;52.318;4.644;2023-03-11T13:42:31;1.60;;;1.60;;
10150;SDS011;5116;52.318;4.644;2023-03-11T13:45:00;1.90;;;1.80;;
10150;SDS011;5116;52.318;4.644;2023-03-11T13:47:30;1.80;;;1.70;;
10150;SDS011;5116;52.318;4.644;2023-03-11T13:50:02;1.67;;;1.57;;
10150;SDS011;5116;52.318;4.644;2023-03-11T13:52:37;1.60;;;1.60;;
10150;SDS011;5116;52.318;4.644;2023-03-11T13:57:48;2.13;;;1.70;;
10150;SDS011;5116;52.318;4.644;2023-03-11T14:00:16;1.30;;;1.30;;
10150;SDS011;5116;52.318;4.644;2023-03-11T14:05:31;1.40;;;1.40;;
10150;SDS011;5116;52.318;4.644;2023-03-11T14:10:52;1.60;;;1.50;;
10150;SDS011;5116;52.318;4.644;2023-03-11T14:13:22;3.87;;;1.43;;
10150;SDS011;5116;52.318;4.644;2023-03-11T14:15:51;1.30;;;1.20;;
10150;SDS011;5116;52.318;4.644;2023-03-11T14:18:25;1.60;;;1.50;;
10150;SDS011;5116;52.318;4.644;2023-03-11T14:20:53;1.47;;;1.40;;
10150;SDS011;5116;52.318;4.644;2023-03-11T14:23:21;1.20;;;1.20;;
10150;SDS011;5116;52.318;4.644;2023-03-11T14:25:59;1.30;;;1.30;;
10150;SDS011;5116;52.318;4.644;2023-03-11T14:28:27;2.00;;;1.90;;
10150;SDS011;5116;52.318;4.644;2023-03-11T14:30:57;2.10;;;2.00;;
10150;SDS011;5116;52.318;4.644;2023-03-11T14:33:25;1.60;;;1.50;;
10150;SDS011;5116;52.318;4.644;2023-03-11T14:35:55;1.90;;;1.73;;
10150;SDS011;5116;52.318;4.644;2023-03-11T14:38:24;2.40;;;2.30;;
10150;SDS011;5116;52.318;4.644;2023-03-11T14:41:02;1.63;;;1.53;;
10150;SDS011;5116;52.318;4.644;2023-03-11T14:43:32;1.67;;;1.57;;
10150;SDS011;5116;52.318;4.644;2023-03-11T14:46:01;1.60;;;1.50;;
10150;SDS011;5116;52.318;4.644;2023-03-11T14:50:57;1.57;;;1.33;;
10150;SDS011;5116;52.318;4.644;2023-03-11T14:53:25;1.43;;;1.37;;
10150;SDS011;5116;52.318;4.644;2023-03-11T14:55:58;1.60;;;1.50;;
10150;SDS011;5116;52.318;4.644;2023-03-11T14:58:27;1.70;;;1.60;;
10150;SDS011;5116;52.318;4.644;2023-03-11T15:03:31;3.13;;;1.67;;
10150;SDS011;5116;52.318;4.644;2023-03-11T15:06:01;1.43;;;1.33;;
10150;SDS011;5116;52.318;4.644;2023-03-11T15:08:30;1.50;;;1.40;;
10150;SDS011;5116;52.318;4.644;2023-03-11T15:11:06;1.50;;;1.50;;
10150;SDS011;5116;52.318;4.644;2023-03-11T15:13:34;1.50;;;1.40;;
10150;SDS011;5116;52.318;4.644;2023-03-11T15:16:03;1.10;;;1.10;;
10150;SDS011;5116;52.318;4.644;2023-03-11T15:18:33;1.10;;;1.10;;
10150;SDS011;5116;52.318;4.644;2023-03-11T15:21:11;1.30;;;1.30;;
10150;SDS011;5116;52.318;4.644;2023-03-11T15:23:46;1.97;;;1.17;;
10150;SDS011;5116;52.318;4.644;2023-03-11T15:26:26;1.00;;;1.00;;
10150;SDS011;5116;52.318;4.644;2023-03-11T15:28:58;1.00;;;1.00;;
10150;SDS011;5116;52.318;4.644;2023-03-11T15:31:31;1.17;;;1.13;;
10150;SDS011;5116;52.318;4.644;2023-03-11T15:34:09;2.50;;;1.10;;
10150;SDS011;5116;52.318;4.644;2023-03-11T15:36:38;1.20;;;1.10;;
10150;SDS011;5116;52.318;4.644;2023-03-11T15:39:14;1.17;;;1.10;;
10150;SDS011;5116;52.318;4.644;2023-03-11T15:42:02;1.10;;;1.10;;
10150;SDS011;5116;52.318;4.644;2023-03-11T15:44:36;1.27;;;1.20;;
10150;SDS011;5116;52.318;4.644;2023-03-11T15:47:12;1.50;;;1.40;;
10150;SDS011;5116;52.318;4.644;2023-03-11T15:49:40;1.87;;;1.50;;
10150;SDS011;5116;52.318;4.644;2023-03-11T15:52:07;1.43;;;1.20;;
10150;SDS011;5116;52.318;4.644;2023-03-11T15:54:40;1.27;;;1.23;;
10150;SDS011;5116;52.318;4.644;2023-03-11T15:57:22;1.10;;;1.10;;
10150;SDS011;5116;52.318;4.644;2023-03-11T15:59:52;1.20;;;1.20;;
10150;SDS011;5116;52.318;4.644;2023-03-11T16:02:21;1.40;;;1.30;;
10150;SDS011;5116;52.318;4.644;2023-03-11T16:04:51;1.07;;;1.07;;
10150;SDS011;5116;52.318;4.644;2023-03-11T16:07:19;1.37;;;1.10;;
10150;SDS011;5116;52.318;4.644;2023-03-11T16:10:04;1.53;;;1.20;;
10150;SDS011;5116;52.318;4.644;2023-03-11T16:12:35;1.10;;;1.10;;
10150;SDS011;5116;52.318;4.644;2023-03-11T16:15:03;1.20;;;1.10;;
10150;SDS011;5116;52.318;4.644;2023-03-11T16:17:33;1.00;;;0.90;;
10150;SDS011;5116;52.318;4.644;2023-03-11T16:20:16;1.30;;;1.20;;
10150;SDS011;5116;52.318;4.644;2023-03-11T16:22:43;1.00;;;1.00;;
10150;SDS011;5116;52.318;4.644;2023-03-11T16:25:30;1.00;;;1.00;;
10150;SDS011;5116;52.318;4.644;2023-03-11T16:28:02;3.40;;;1.10;;
10150;SDS011;5116;52.318;4.644;2023-03-11T16:30:31;1.20;;;1.10;;
10150;SDS011;5116;52.318;4.644;2023-03-11T16:32:58;1.00;;;1.00;;
10150;SDS011;5116;52.318;4.644;2023-03-11T16:35:30;1.10;;;1.10;;
10150;SDS011;5116;52.318;4.644;2023-03-11T16:37:57;1.07;;;1.07;;
10150;SDS011;5116;52.318;4.644;2023-03-11T16:40:27;0.90;;;0.90;;
10150;SDS011;5116;52.318;4.644;2023-03-11T16:42:58;1.00;;;1.00;;
10150;SDS011;5116;52.318;4.644;2023-03-11T16:45:26;1.13;;;1.13;;
10150;SDS011;5116;52.318;4.644;2023-03-11T16:47:54;1.07;;;1.07;;
10150;SDS011;5116;52.318;4.644;2023-03-11T16:50:24;1.17;;;1.10;;
10150;SDS011;5116;52.318;4.644;2023-03-11T16:52:52;2.10;;;1.10;;
10150;SDS011;5116;52.318;4.644;2023-03-11T16:55:20;1.07;;;1.00;;